Time;durP1;ratioP1;P1;durP2;ratioP2;P2;SDS_P1;SDS_P2;PMS_P1;PMS_P2;Temp;Humidity;BMP_temperature;BMP_pressure;BME280_temperature;BME280_humidity;BME280_pressure;Samples;Min_cycle;Max_cycle;Signal;HPM_P1;HPM_P2
2023/10/31 00:00:18;;;;;;;9.07;3.60;;;;;;;;;;4981936;28;20060;-77
2023/10/31 00:02:43;;;;;;;7.57;3.60;;;;;;;;;;4998994;28;20065;-76
2023/10/31 00:05:08;;;;;;;8.35;4.22;;;;;;;;;;4981640;28;20023;-76
2023/10/31 00:07:34;;;;;;;7.20;3.58;;;;;;;;;;4999078;28;20408;-76
2023/10/31 00:09:59;;;;;;;4.68;3.05;;;;;;;;;;4979614;28;20022;-76
2023/10/31 00:12:24;;;;;;;6.55;3.38;;;;;;;;;;4996130;28;20026;-76
2023/10/31 00:14:49;;;;;;;6.47;3.05;;;;;;;;;;4996176;28;20113;-76
2023/10/31 00:17:15;;;;;;;7.20;3.58;;;;;;;;;;4978822;28;20131;-76
2023/10/31 00:19:40;;;;;;;6.10;3.40;;;;;;;;;;4995928;28;20057;-76
2023/10/31 00:22:05;;;;;;;6.72;3.45;;;;;;;;;;4995889;28;20081;-75
2023/10/31 00:24:32;;;;;;;6.85;3.72;;;;;;;;;;4978136;28;20108;-76
2023/10/31 00:26:57;;;;;;;7.28;3.92;;;;;;;;;;4978053;28;20034;-76
2023/10/31 00:29:22;;;;;;;7.93;3.33;;;;;;;;;;4978154;28;20037;-75
2023/10/31 00:31:48;;;;;;;5.00;3.50;;;;;;;;;;4995640;28;20018;-76
2023/10/31 00:34:13;;;;;;;7.78;3.90;;;;;;;;;;4995709;28;20291;-76
2023/10/31 00:36:38;;;;;;;7.20;3.63;;;;;;;;;;4978022;28;20089;-76
2023/10/31 00:39:04;;;;;;;6.88;4.07;;;;;;;;;;4978016;28;20401;-75
2023/10/31 00:41:30;;;;;;;6.75;3.80;;;;;;;;;;4995753;28;20458;-75
2023/10/31 00:43:55;;;;;;;9.98;4.07;;;;;;;;;;4995246;28;20034;-75
2023/10/31 00:46:20;;;;;;;10.88;4.13;;;;;;;;;;4995129;28;20026;-75
2023/10/31 00:48:45;;;;;;;6.40;4.00;;;;;;;;;;4978370;28;20061;-76
2023/10/31 00:51:11;;;;;;;8.05;4.18;;;;;;;;;;4977659;28;20275;-77
2023/10/31 00:53:36;;;;;;;8.40;4.40;;;;;;;;;;4995116;28;20397;-77
2023/10/31 00:56:02;;;;;;;8.10;4.15;;;;;;;;;;4995023;28;20474;-77
2023/10/31 00:58:27;;;;;;;7.63;4.18;;;;;;;;;;4995293;28;20035;-77
2023/10/31 01:00:52;;;;;;;5.22;3.92;;;;;;;;;;4995017;28;20194;-77
2023/10/31 01:03:18;;;;;;;10.85;4.40;;;;;;;;;;4978040;28;20033;-77
2023/10/31 01:05:43;;;;;;;9.45;4.07;;;;;;;;;;4977849;28;20023;-77
2023/10/31 01:08:08;;;;;;;8.50;4.03;;;;;;;;;;4995192;28;20092;-76
2023/10/31 01:10:33;;;;;;;12.23;4.67;;;;;;;;;;4995373;28;20482;-77
2023/10/31 01:12:59;;;;;;;8.40;4.28;;;;;;;;;;4977877;28;20256;-77
2023/10/31 01:15:24;;;;;;;6.37;4.07;;;;;;;;;;4977827;28;20022;-77
2023/10/31 01:17:49;;;;;;;8.10;4.27;;;;;;;;;;4995233;28;20323;-77
2023/10/31 01:20:14;;;;;;;11.77;4.38;;;;;;;;;;4995473;28;20314;-77
2023/10/31 01:22:40;;;;;;;9.82;4.47;;;;;;;;;;4995839;28;20034;-77
2023/10/31 01:25:05;;;;;;;6.10;4.25;;;;;;;;;;4977516;28;20029;-78
2023/10/31 01:27:30;;;;;;;8.65;4.13;;;;;;;;;;4995642;28;20073;-77
2023/10/31 01:29:56;;;;;;;13.60;4.38;;;;;;;;;;4995002;28;20031;-77
2023/10/31 01:32:21;;;;;;;8.52;4.70;;;;;;;;;;4994959;28;20037;-77
2023/10/31 01:34:46;;;;;;;6.95;4.70;;;;;;;;;;4995380;28;20027;-76
2023/10/31 01:37:13;;;;;;;8.15;4.20;;;;;;;;;;4994830;28;20026;-78
2023/10/31 01:39:39;;;;;;;8.30;4.28;;;;;;;;;;4976085;28;20022;-78
2023/10/31 01:42:04;;;;;;;8.80;4.75;;;;;;;;;;4993161;28;20033;-77
2023/10/31 01:44:29;;;;;;;6.93;4.65;;;;;;;;;;4994391;28;20057;-77
2023/10/31 01:46:55;;;;;;;10.50;4.50;;;;;;;;;;4994685;28;20057;-76
2023/10/31 01:49:21;;;;;;;8.90;4.53;;;;;;;;;;4994662;28;20477;-77
2023/10/31 01:51:46;;;;;;;7.35;4.80;;;;;;;;;;4993780;28;20028;-77
2023/10/31 01:54:13;;;;;;;7.43;4.60;;;;;;;;;;4994853;28;20026;-77
2023/10/31 01:56:38;;;;;;;8.27;4.47;;;;;;;;;;4976950;28;20473;-77
2023/10/31 01:59:05;;;;;;;7.30;4.70;;;;;;;;;;4976969;28;20057;-76
2023/10/31 02:01:32;;;;;;;8.50;5.00;;;;;;;;;;4994399;28;20032;-77
2023/10/31 02:03:58;;;;;;;9.13;4.82;;;;;;;;;;4976966;28;20457;-77
2023/10/31 02:06:24;;;;;;;7.53;5.07;;;;;;;;;;4976755;28;20037;-77
2023/10/31 02:08:49;;;;;;;7.97;5.28;;;;;;;;;;4994385;28;20464;-77
2023/10/31 02:11:14;;;;;;;8.27;5.55;;;;;;;;;;4994203;28;20027;-77
2023/10/31 02:13:39;;;;;;;9.68;5.13;;;;;;;;;;4994267;28;20076;-77
2023/10/31 02:16:05;;;;;;;8.98;5.40;;;;;;;;;;4994300;28;20026;-76
2023/10/31 02:18:30;;;;;;;9.35;5.20;;;;;;;;;;4994113;28;20109;-77
2023/10/31 02:20:59;;;;;;;9.90;5.15;;;;;;;;;;4995282;28;20057;-81
2023/10/31 02:23:24;;;;;;;14.18;5.72;;;;;;;;;;4976545;28;20034;-76
2023/10/31 02:25:50;;;;;;;7.78;5.28;;;;;;;;;;4994304;28;20030;-76
2023/10/31 02:28:15;;;;;;;11.00;5.38;;;;;;;;;;4993878;28;20038;-77
2023/10/31 02:30:41;;;;;;;8.38;5.18;;;;;;;;;;4993939;28;20033;-77
2023/10/31 02:33:06;;;;;;;10.88;5.43;;;;;;;;;;4993381;28;20034;-77
2023/10/31 02:35:32;;;;;;;13.45;5.75;;;;;;;;;;4976436;28;20019;-77
2023/10/31 02:37:57;;;;;;;10.85;5.47;;;;;;;;;;4993757;28;20113;-77
2023/10/31 02:40:23;;;;;;;7.20;5.40;;;;;;;;;;4994233;28;20045;-77
2023/10/31 02:42:48;;;;;;;9.05;5.55;;;;;;;;;;4995060;28;20112;-77
2023/10/31 02:45:14;;;;;;;7.68;4.95;;;;;;;;;;4976268;28;20054;-76
2023/10/31 02:47:39;;;;;;;11.55;5.72;;;;;;;;;;4993662;28;20080;-76
2023/10/31 02:50:05;;;;;;;11.27;5.28;;;;;;;;;;4993666;28;20022;-76
2023/10/31 02:52:31;;;;;;;7.80;5.95;;;;;;;;;;4993706;28;20081;-76
2023/10/31 02:54:56;;;;;;;8.32;5.40;;;;;;;;;;4993574;28;20018;-76
2023/10/31 02:57:22;;;;;;;14.30;5.57;;;;;;;;;;4993618;28;20027;-76
2023/10/31 02:59:47;;;;;;;7.68;5.20;;;;;;;;;;4976180;28;20088;-76
2023/10/31 03:02:14;;;;;;;10.90;6.10;;;;;;;;;;4976075;28;20413;-76
2023/10/31 03:04:39;;;;;;;9.13;6.20;;;;;;;;;;4993427;28;20504;-76
2023/10/31 03:07:05;;;;;;;6.47;5.40;;;;;;;;;;4993360;28;20035;-76
2023/10/31 03:09:30;;;;;;;8.30;5.72;;;;;;;;;;4993479;28;20478;-76
2023/10/31 03:11:55;;;;;;;10.23;5.68;;;;;;;;;;4993425;28;20022;-76
2023/10/31 03:14:20;;;;;;;11.52;5.93;;;;;;;;;;4993967;28;20037;-77
2023/10/31 03:16:46;;;;;;;11.63;5.87;;;;;;;;;;4993474;28;20026;-77
2023/10/31 03:19:11;;;;;;;11.80;6.45;;;;;;;;;;4993468;28;20256;-77
2023/10/31 03:21:37;;;;;;;8.80;6.28;;;;;;;;;;4993458;28;20105;-76
2023/10/31 03:24:02;;;;;;;12.73;6.65;;;;;;;;;;4993429;28;20053;-76
2023/10/31 03:26:30;;;;;;;12.75;6.72;;;;;;;;;;4993242;28;20386;-76
2023/10/31 03:28:57;;;;;;;14.70;7.70;;;;;;;;;;4993380;28;20033;-76
2023/10/31 03:31:23;;;;;;;12.10;7.68;;;;;;;;;;4993541;28;20030;-77
2023/10/31 03:33:48;;;;;;;14.57;8.90;;;;;;;;;;4993619;28;20030;-76
2023/10/31 03:36:14;;;;;;;11.63;8.05;;;;;;;;;;4993335;28;20015;-76
2023/10/31 03:38:40;;;;;;;11.40;8.23;;;;;;;;;;4959795;28;20481;-76
2023/10/31 03:41:07;;;;;;;11.68;8.77;;;;;;;;;;4976049;28;20116;-76
2023/10/31 03:43:32;;;;;;;12.35;8.68;;;;;;;;;;4975802;28;20433;-77
2023/10/31 03:45:58;;;;;;;12.45;8.95;;;;;;;;;;4994682;28;20033;-76
2023/10/31 03:48:24;;;;;;;14.32;9.63;;;;;;;;;;4997508;28;20151;-76
2023/10/31 03:50:50;;;;;;;18.65;9.65;;;;;;;;;;4979441;28;20033;-76
2023/10/31 03:53:15;;;;;;;13.27;8.98;;;;;;;;;;4980447;28;20026;-76
2023/10/31 03:55:41;;;;;;;15.93;9.50;;;;;;;;;;4996746;28;20065;-77
2023/10/31 03:58:06;;;;;;;12.25;8.52;;;;;;;;;;4963041;28;20022;-76
2023/10/31 04:00:31;;;;;;;12.30;8.52;;;;;;;;;;4996735;28;20024;-76
2023/10/31 04:02:57;;;;;;;11.38;7.82;;;;;;;;;;4996587;28;20474;-76
2023/10/31 04:05:22;;;;;;;10.82;7.25;;;;;;;;;;4996848;28;20030;-76
2023/10/31 04:07:48;;;;;;;9.90;6.90;;;;;;;;;;4978984;28;20033;-76
2023/10/31 04:10:14;;;;;;;10.68;6.53;;;;;;;;;;4979053;28;20034;-75
2023/10/31 04:12:39;;;;;;;10.35;5.88;;;;;;;;;;4996596;28;20050;-75
2023/10/31 04:15:05;;;;;;;8.95;6.20;;;;;;;;;;4996731;28;20524;-75
2023/10/31 04:17:30;;;;;;;7.57;5.32;;;;;;;;;;4978776;28;20033;-76
2023/10/31 04:19:56;;;;;;;8.90;5.85;;;;;;;;;;4996500;28;20488;-75
2023/10/31 04:22:21;;;;;;;7.18;5.20;;;;;;;;;;4979110;28;20038;-75
2023/10/31 04:24:46;;;;;;;7.03;5.00;;;;;;;;;;4996218;28;20031;-76
2023/10/31 04:27:12;;;;;;;6.47;4.45;;;;;;;;;;4996092;28;20259;-76
2023/10/31 04:29:37;;;;;;;7.78;4.82;;;;;;;;;;4996164;28;20018;-76
2023/10/31 04:32:03;;;;;;;6.95;4.10;;;;;;;;;;4996040;28;20034;-76
2023/10/31 04:34:28;;;;;;;5.78;4.68;;;;;;;;;;4978583;28;20508;-75
2023/10/31 04:36:53;;;;;;;5.22;4.03;;;;;;;;;;4996393;28;20030;-76
2023/10/31 04:39:19;;;;;;;5.43;3.80;;;;;;;;;;4996304;28;20521;-76
2023/10/31 04:41:44;;;;;;;7.82;4.50;;;;;;;;;;4996025;28;20678;-76
2023/10/31 04:44:09;;;;;;;6.10;3.88;;;;;;;;;;4995848;28;20034;-76
2023/10/31 04:46:34;;;;;;;5.80;4.18;;;;;;;;;;4978497;28;20029;-76
2023/10/31 04:49:00;;;;;;;6.22;4.32;;;;;;;;;;4995734;28;20433;-77
2023/10/31 04:51:25;;;;;;;5.22;3.80;;;;;;;;;;4995779;28;20470;-76
2023/10/31 04:53:50;;;;;;;5.75;3.63;;;;;;;;;;4995763;28;20037;-76
2023/10/31 04:56:16;;;;;;;4.47;3.20;;;;;;;;;;4995155;28;20026;-76
2023/10/31 04:58:42;;;;;;;4.28;2.67;;;;;;;;;;4995674;28;20053;-76
2023/10/31 05:01:12;;;;;;;5.03;3.28;;;;;;;;;;4995555;28;20022;-76
2023/10/31 05:03:38;;;;;;;4.93;2.78;;;;;;;;;;4978709;28;20030;-76
2023/10/31 05:06:04;;;;;;;7.03;2.97;;;;;;;;;;4995728;28;20042;-77
2023/10/31 05:08:30;;;;;;;3.90;2.83;;;;;;;;;;4978014;28;20031;-77
2023/10/31 05:10:55;;;;;;;3.65;2.67;;;;;;;;;;4995464;28;20029;-76
2023/10/31 05:13:21;;;;;;;4.47;2.67;;;;;;;;;;4995419;28;20389;-77
2023/10/31 05:15:46;;;;;;;4.93;2.50;;;;;;;;;;4995599;28;20087;-77
2023/10/31 05:18:11;;;;;;;5.63;2.53;;;;;;;;;;4995196;28;20410;-76
2023/10/31 05:20:37;;;;;;;3.42;2.20;;;;;;;;;;4995219;28;20105;-76
2023/10/31 05:23:02;;;;;;;3.85;2.10;;;;;;;;;;4995236;28;20030;-76
2023/10/31 05:25:28;;;;;;;4.35;2.53;;;;;;;;;;4995099;28;20029;-76
2023/10/31 05:27:53;;;;;;;3.63;2.25;;;;;;;;;;4995014;28;20125;-76
2023/10/31 05:30:18;;;;;;;3.05;2.33;;;;;;;;;;4977690;28;20488;-76
2023/10/31 05:32:44;;;;;;;4.70;2.67;;;;;;;;;;4994978;28;20036;-76
2023/10/31 05:35:10;;;;;;;2.92;2.25;;;;;;;;;;4995212;28;20088;-76
2023/10/31 05:37:35;;;;;;;2.00;1.52;;;;;;;;;;4994873;28;20041;-76
2023/10/31 05:40:01;;;;;;;3.75;1.70;;;;;;;;;;4977820;28;20022;-75
2023/10/31 05:42:27;;;;;;;1.88;1.58;;;;;;;;;;4994857;28;20033;-75
2023/10/31 05:44:52;;;;;;;1.88;1.20;;;;;;;;;;4977094;28;20037;-75
2023/10/31 05:47:18;;;;;;;2.55;1.50;;;;;;;;;;4977206;28;20409;-76
2023/10/31 05:49:44;;;;;;;1.98;1.42;;;;;;;;;;4994714;28;20513;-77
2023/10/31 05:52:09;;;;;;;1.80;1.00;;;;;;;;;;4995173;28;20026;-76
2023/10/31 05:54:34;;;;;;;1.17;1.00;;;;;;;;;;4994780;28;20022;-76
2023/10/31 05:56:59;;;;;;;1.73;1.05;;;;;;;;;;4994388;28;20110;-76
2023/10/31 05:59:25;;;;;;;1.58;1.02;;;;;;;;;;4994774;28;20029;-76
2023/10/31 06:01:50;;;;;;;1.70;1.00;;;;;;;;;;4994808;28;20099;-76
2023/10/31 06:04:15;;;;;;;1.65;0.98;;;;;;;;;;4976933;28;20409;-76
2023/10/31 06:06:41;;;;;;;1.00;0.90;;;;;;;;;;4994189;28;20042;-76
2023/10/31 06:09:06;;;;;;;1.08;0.95;;;;;;;;;;4993949;28;20038;-75
2023/10/31 06:11:31;;;;;;;1.30;0.98;;;;;;;;;;4994329;28;20034;-75
2023/10/31 06:13:59;;;;;;;1.88;1.00;;;;;;;;;;4994211;28;20022;-76
2023/10/31 06:16:24;;;;;;;1.67;1.00;;;;;;;;;;4994111;28;20049;-76
2023/10/31 06:18:49;;;;;;;1.73;0.85;;;;;;;;;;4994170;28;20062;-75
2023/10/31 06:21:15;;;;;;;1.00;0.90;;;;;;;;;;4994738;28;20030;-76
2023/10/31 06:23:42;;;;;;;0.70;0.70;;;;;;;;;;4994518;28;20256;-76
2023/10/31 06:26:08;;;;;;;0.70;0.70;;;;;;;;;;4976549;28;20080;-76
2023/10/31 06:28:35;;;;;;;2.10;0.77;;;;;;;;;;4976568;28;20457;-76
2023/10/31 06:31:01;;;;;;;0.57;0.55;;;;;;;;;;4976848;28;20109;-76
2023/10/31 06:33:26;;;;;;;0.88;0.70;;;;;;;;;;4976579;28;20030;-76
2023/10/31 06:35:53;;;;;;;1.30;0.52;;;;;;;;;;4993877;28;20033;-75
2023/10/31 06:38:19;;;;;;;0.82;0.60;;;;;;;;;;4976190;28;20109;-77
2023/10/31 06:40:44;;;;;;;4.05;0.55;;;;;;;;;;4993937;28;20069;-76
2023/10/31 06:43:10;;;;;;;1.38;0.82;;;;;;;;;;4976567;28;20029;-78
2023/10/31 06:45:35;;;;;;;2.25;0.52;;;;;;;;;;4993694;28;20110;-77
2023/10/31 06:48:00;;;;;;;1.65;0.65;;;;;;;;;;4993958;28;20022;-77
2023/10/31 06:50:26;;;;;;;1.98;0.68;;;;;;;;;;4994035;28;20449;-78
2023/10/31 06:52:51;;;;;;;1.40;0.60;;;;;;;;;;4993834;28;20026;-76
2023/10/31 06:55:19;;;;;;;0.47;0.47;;;;;;;;;;4994345;28;20082;-76
2023/10/31 06:57:47;;;;;;;0.52;0.50;;;;;;;;;;4993705;28;20030;-76
2023/10/31 07:00:13;;;;;;;0.73;0.50;;;;;;;;;;4993975;28;20061;-77
2023/10/31 07:02:38;;;;;;;0.55;0.50;;;;;;;;;;4976523;28;20501;-76
2023/10/31 07:05:04;;;;;;;1.42;0.45;;;;;;;;;;4993529;28;20089;-77
2023/10/31 07:07:37;;;;;;;0.40;0.40;;;;;;;;;;4975259;28;20057;-77
2023/10/31 07:10:02;;;;;;;0.95;0.57;;;;;;;;;;4976387;28;20080;-77
2023/10/31 07:12:28;;;;;;;0.77;0.50;;;;;;;;;;4976455;28;20125;-76
2023/10/31 07:14:53;;;;;;;1.75;0.50;;;;;;;;;;4994279;28;20067;-77
2023/10/31 07:17:18;;;;;;;0.70;0.50;;;;;;;;;;4993434;28;20037;-77
2023/10/31 07:19:43;;;;;;;0.73;0.60;;;;;;;;;;4996054;28;20018;-80
2023/10/31 07:22:09;;;;;;;0.57;0.57;;;;;;;;;;4981644;28;20317;-77
2023/10/31 07:24:36;;;;;;;0.52;0.40;;;;;;;;;;4997840;28;20034;-77
2023/10/31 07:27:01;;;;;;;0.32;0.32;;;;;;;;;;4997717;28;20062;-76
2023/10/31 07:29:29;;;;;;;0.57;0.57;;;;;;;;;;4997583;28;20058;-77
2023/10/31 07:31:54;;;;;;;0.60;0.60;;;;;;;;;;4997133;28;20022;-77
2023/10/31 07:34:20;;;;;;;0.40;0.40;;;;;;;;;;4997414;28;20030;-77
2023/10/31 07:36:45;;;;;;;1.02;0.52;;;;;;;;;;4997383;28;20260;-76
2023/10/31 07:39:12;;;;;;;1.52;0.60;;;;;;;;;;4981901;28;20031;-78
2023/10/31 07:41:37;;;;;;;0.50;0.50;;;;;;;;;;4980756;28;20033;-75
2023/10/31 07:44:04;;;;;;;2.65;0.38;;;;;;;;;;4998239;28;20030;-77
2023/10/31 07:46:29;;;;;;;0.45;0.45;;;;;;;;;;4979261;28;20081;-77
2023/10/31 07:48:54;;;;;;;1.75;0.50;;;;;;;;;;4998468;28;20432;-78
2023/10/31 07:51:20;;;;;;;1.02;0.60;;;;;;;;;;4980146;28;20018;-77
2023/10/31 07:53:46;;;;;;;3.60;0.45;;;;;;;;;;4996901;28;20558;-76
2023/10/31 07:56:23;;;;;;;0.38;0.38;;;;;;;;;;4996850;28;20026;-78
2023/10/31 07:58:49;;;;;;;0.90;0.45;;;;;;;;;;4997884;28;20050;-75
2023/10/31 08:01:16;;;;;;;0.70;0.45;;;;;;;;;;4997522;28;20023;-77
2023/10/31 08:03:41;;;;;;;0.70;0.43;;;;;;;;;;4997266;28;20022;-75
2023/10/31 08:06:07;;;;;;;3.30;0.45;;;;;;;;;;4996520;28;20037;-77
2023/10/31 08:08:34;;;;;;;0.50;0.50;;;;;;;;;;4996652;28;20038;-76
2023/10/31 08:10:59;;;;;;;0.30;0.30;;;;;;;;;;4996754;28;20022;-76
2023/10/31 08:13:24;;;;;;;0.32;0.32;;;;;;;;;;4979082;28;20045;-76
2023/10/31 08:15:50;;;;;;;0.45;0.45;;;;;;;;;;4979284;28;20133;-76
2023/10/31 08:18:15;;;;;;;0.40;0.40;;;;;;;;;;4979016;28;20064;-76
2023/10/31 08:20:40;;;;;;;0.90;0.43;;;;;;;;;;4995957;28;20030;-76
2023/10/31 08:23:06;;;;;;;0.50;0.40;;;;;;;;;;4978422;28;20088;-76
2023/10/31 08:25:31;;;;;;;0.40;0.28;;;;;;;;;;4978364;28;20490;-77
2023/10/31 08:27:56;;;;;;;0.40;0.32;;;;;;;;;;4996304;28;20019;-76
2023/10/31 08:30:22;;;;;;;0.40;0.30;;;;;;;;;;4978844;28;20094;-76
2023/10/31 08:32:47;;;;;;;0.43;0.40;;;;;;;;;;4977617;28;20034;-77
2023/10/31 08:35:12;;;;;;;0.75;0.40;;;;;;;;;;4996486;28;20030;-77
2023/10/31 08:37:38;;;;;;;2.92;0.47;;;;;;;;;;4997090;28;20506;-77
2023/10/31 08:40:04;;;;;;;0.40;0.40;;;;;;;;;;4979419;28;20165;-75
2023/10/31 08:42:30;;;;;;;0.43;0.38;;;;;;;;;;4996618;28;20030;-76
2023/10/31 08:44:55;;;;;;;1.35;0.30;;;;;;;;;;4978848;28;20027;-77
2023/10/31 08:47:20;;;;;;;1.40;0.40;;;;;;;;;;4995501;28;20030;-78
2023/10/31 08:49:45;;;;;;;0.88;0.47;;;;;;;;;;4978602;28;20464;-77
2023/10/31 08:52:11;;;;;;;0.77;0.40;;;;;;;;;;4978654;28;20081;-77
2023/10/31 08:54:36;;;;;;;3.53;0.30;;;;;;;;;;4995897;28;20038;-77
2023/10/31 08:57:01;;;;;;;0.70;0.37;;;;;;;;;;4995800;28;20026;-76
2023/10/31 08:59:26;;;;;;;0.40;0.40;;;;;;;;;;4995712;28;20259;-76
2023/10/31 09:01:52;;;;;;;3.15;0.82;;;;;;;;;;4978056;28;20033;-76
2023/10/31 09:04:17;;;;;;;3.50;0.82;;;;;;;;;;4996489;28;20094;-76
2023/10/31 09:06:43;;;;;;;1.55;1.08;;;;;;;;;;4996039;28;20034;-76
2023/10/31 09:09:10;;;;;;;0.73;0.40;;;;;;;;;;4995024;28;20030;-77
2023/10/31 09:11:35;;;;;;;2.20;0.40;;;;;;;;;;4993993;28;20022;-77
2023/10/31 09:14:00;;;;;;;1.40;0.40;;;;;;;;;;4992999;28;20022;-77
2023/10/31 09:16:25;;;;;;;1.27;0.73;;;;;;;;;;4976222;28;20088;-76
2023/10/31 09:18:52;;;;;;;1.27;0.90;;;;;;;;;;4993167;28;20558;-77
2023/10/31 09:21:17;;;;;;;1.00;0.80;;;;;;;;;;4994091;28;20370;-76
2023/10/31 09:23:43;;;;;;;0.63;0.63;;;;;;;;;;4994840;28;20034;-78
2023/10/31 09:26:08;;;;;;;1.30;0.60;;;;;;;;;;4977628;28;20125;-77
2023/10/31 09:28:33;;;;;;;1.58;0.68;;;;;;;;;;4977867;28;20053;-77
2023/10/31 09:31:00;;;;;;;0.30;0.30;;;;;;;;;;4977377;28;20030;-77
2023/10/31 09:33:26;;;;;;;1.20;0.50;;;;;;;;;;4995156;28;20090;-77
2023/10/31 09:35:51;;;;;;;0.40;0.40;;;;;;;;;;4994607;28;20026;-77
2023/10/31 09:38:16;;;;;;;1.57;0.40;;;;;;;;;;4977186;28;20018;-77
2023/10/31 09:40:41;;;;;;;0.40;0.40;;;;;;;;;;4994816;28;20300;-77
2023/10/31 09:43:07;;;;;;;1.00;0.20;;;;;;;;;;4994729;28;20268;-77
2023/10/31 09:45:32;;;;;;;0.25;0.25;;;;;;;;;;4994692;28;20068;-77
2023/10/31 09:48:00;;;;;;;0.32;0.32;;;;;;;;;;4994681;28;20026;-77
2023/10/31 09:50:26;;;;;;;0.40;0.40;;;;;;;;;;4994551;28;20026;-77
2023/10/31 09:52:52;;;;;;;0.30;0.30;;;;;;;;;;4994720;28;20024;-77
2023/10/31 09:55:19;;;;;;;0.20;0.20;;;;;;;;;;4995851;28;20034;-77
2023/10/31 09:57:45;;;;;;;0.20;0.20;;;;;;;;;;4995306;28;20018;-77
2023/10/31 10:00:10;;;;;;;0.30;0.30;;;;;;;;;;4977749;28;20045;-77
2023/10/31 10:02:36;;;;;;;0.70;0.55;;;;;;;;;;4996377;28;20030;-77
2023/10/31 10:05:02;;;;;;;0.50;0.37;;;;;;;;;;4996761;28;20026;-78
2023/10/31 10:07:27;;;;;;;1.00;0.50;;;;;;;;;;4978053;28;20263;-77
2023/10/31 10:09:52;;;;;;;2.83;0.38;;;;;;;;;;4996351;28;20057;-78
2023/10/31 10:12:18;;;;;;;2.10;0.40;;;;;;;;;;4995209;28;20034;-78
2023/10/31 10:14:46;;;;;;;0.60;0.50;;;;;;;;;;4996704;28;20248;-78
2023/10/31 10:17:21;;;;;;;0.25;0.25;;;;;;;;;;4998224;28;20026;-79
2023/10/31 10:19:46;;;;;;;0.40;0.40;;;;;;;;;;4998981;28;20371;-80
2023/10/31 10:22:14;;;;;;;1.00;0.20;;;;;;;;;;4996868;28;20069;-77
2023/10/31 10:24:40;;;;;;;0.28;0.20;;;;;;;;;;4977643;28;20054;-77
2023/10/31 10:27:08;;;;;;;0.30;0.30;;;;;;;;;;4977147;28;20045;-77
2023/10/31 10:29:33;;;;;;;0.40;0.40;;;;;;;;;;4994540;28;20023;-77
2023/10/31 10:31:58;;;;;;;1.10;1.00;;;;;;;;;;4994549;28;20542;-77
2023/10/31 10:34:24;;;;;;;0.70;0.30;;;;;;;;;;4994397;28;20053;-76
2023/10/31 10:36:49;;;;;;;0.40;0.40;;;;;;;;;;4994192;28;20267;-76
2023/10/31 10:39:20;;;;;;;0.40;0.40;;;;;;;;;;4995719;28;20038;-76
2023/10/31 10:41:46;;;;;;;0.50;0.40;;;;;;;;;;4995636;28;20026;-76
2023/10/31 10:44:13;;;;;;;0.57;0.40;;;;;;;;;;4994908;28;20026;-76
2023/10/31 10:46:39;;;;;;;0.55;0.30;;;;;;;;;;4976336;28;20081;-77
2023/10/31 10:49:09;;;;;;;2.38;0.30;;;;;;;;;;4995459;28;20026;-80
2023/10/31 10:51:49;;;;;;;0.60;0.30;;;;;;;;;;4994331;28;20026;-81
2023/10/31 10:54:19;;;;;;;4.53;1.20;;;;;;;;;;4994269;28;20030;-75
2023/10/31 10:56:58;;;;;;;0.40;0.40;;;;;;;;;;4994501;28;20102;-77
2023/10/31 10:59:40;;;;;;;0.95;0.60;;;;;;;;;;4994116;28;20037;-76
2023/10/31 11:02:06;;;;;;;0.98;0.40;;;;;;;;;;4994656;28;20018;-77
2023/10/31 11:04:33;;;;;;;0.40;0.40;;;;;;;;;;4995057;28;20397;-76
2023/10/31 11:06:59;;;;;;;0.50;0.50;;;;;;;;;;4979438;28;20041;-78
2023/10/31 11:09:25;;;;;;;0.65;0.40;;;;;;;;;;4997740;28;20030;-78
2023/10/31 11:11:51;;;;;;;0.40;0.40;;;;;;;;;;4978217;28;20065;-78
2023/10/31 11:14:19;;;;;;;0.30;0.30;;;;;;;;;;4994487;28;20026;-76
2023/10/31 11:16:51;;;;;;;0.30;0.30;;;;;;;;;;4977347;28;20022;-78
2023/10/31 11:19:17;;;;;;;0.40;0.30;;;;;;;;;;4997325;28;20501;-79
2023/10/31 11:22:05;;;;;;;0.47;0.38;;;;;;;;;;4998378;28;20030;-79
2023/10/31 11:24:36;;;;;;;0.68;0.52;;;;;;;;;;4997325;28;20100;-79
2023/10/31 11:27:03;;;;;;;0.77;0.60;;;;;;;;;;4979874;28;20441;-78
2023/10/31 11:29:30;;;;;;;0.85;0.50;;;;;;;;;;4997635;28;20085;-79
2023/10/31 11:31:56;;;;;;;2.58;0.55;;;;;;;;;;4978082;28;20477;-80
2023/10/31 11:34:22;;;;;;;0.63;0.30;;;;;;;;;;4980647;28;20084;-81
2023/10/31 11:36:47;;;;;;;0.28;0.28;;;;;;;;;;4982282;28;20470;-80
2023/10/31 11:39:15;;;;;;;0.47;0.40;;;;;;;;;;5000190;28;20034;-81
2023/10/31 11:42:25;;;;;;;2.38;0.52;;;;;;;;;;5001364;28;20026;-84
2023/10/31 11:44:56;;;;;;;0.57;0.40;;;;;;;;;;4998456;28;20034;-83
2023/10/31 11:47:27;;;;;;;4.35;0.85;;;;;;;;;;5000702;28;20485;-82
2023/10/31 11:49:58;;;;;;;1.65;0.47;;;;;;;;;;4983778;28;20023;-82
2023/10/31 11:52:39;;;;;;;2.78;0.70;;;;;;;;;;4983972;28;20033;-83
2023/10/31 11:55:29;;;;;;;0.50;0.40;;;;;;;;;;4999567;28;20033;-81
2023/10/31 11:57:57;;;;;;;0.30;0.30;;;;;;;;;;4979606;28;20038;-81
2023/10/31 12:00:24;;;;;;;0.35;0.30;;;;;;;;;;4997921;28;20041;-81
2023/10/31 12:03:00;;;;;;;3.40;0.73;;;;;;;;;;4999016;28;20470;-79
2023/10/31 12:05:25;;;;;;;0.40;0.40;;;;;;;;;;4998967;28;20159;-79
2023/10/31 12:08:10;;;;;;;0.77;0.35;;;;;;;;;;5000742;28;20058;-84
2023/10/31 12:10:35;;;;;;;0.60;0.55;;;;;;;;;;5001575;28;20042;-79
2023/10/31 12:13:00;;;;;;;5.50;0.60;;;;;;;;;;4984353;28;20480;-81
2023/10/31 12:15:26;;;;;;;0.50;0.40;;;;;;;;;;5002175;28;20023;-82
2023/10/31 12:17:51;;;;;;;0.50;0.50;;;;;;;;;;5000316;28;20019;-81
2023/10/31 12:20:17;;;;;;;3.33;0.70;;;;;;;;;;4999531;28;20474;-80
2023/10/31 12:22:43;;;;;;;2.45;0.90;;;;;;;;;;4999623;28;20027;-79
2023/10/31 12:25:09;;;;;;;0.47;0.43;;;;;;;;;;5001636;28;20490;-81
2023/10/31 12:27:49;;;;;;;0.70;0.50;;;;;;;;;;4982549;28;20454;-81
2023/10/31 12:30:16;;;;;;;0.70;0.50;;;;;;;;;;4982952;28;20029;-80
2023/10/31 12:32:42;;;;;;;0.40;0.40;;;;;;;;;;5002569;28;20031;-80
2023/10/31 12:35:15;;;;;;;0.80;0.50;;;;;;;;;;5000995;28;20101;-83
2023/10/31 12:37:45;;;;;;;0.30;0.20;;;;;;;;;;5001806;28;20057;-82
2023/10/31 12:40:12;;;;;;;0.50;0.45;;;;;;;;;;5001559;28;20026;-82
2023/10/31 12:42:37;;;;;;;0.73;0.57;;;;;;;;;;5001265;28;20022;-81
2023/10/31 12:45:04;;;;;;;0.60;0.60;;;;;;;;;;5001140;28;20023;-81
2023/10/31 12:47:29;;;;;;;0.50;0.50;;;;;;;;;;5000689;28;20026;-80
2023/10/31 12:50:09;;;;;;;1.83;0.60;;;;;;;;;;5000899;28;20109;-80
2023/10/31 12:52:54;;;;;;;0.40;0.40;;;;;;;;;;4983147;28;20271;-81
2023/10/31 12:55:22;;;;;;;0.50;0.50;;;;;;;;;;4983504;28;20367;-80
2023/10/31 12:57:48;;;;;;;0.98;0.50;;;;;;;;;;5000980;28;20026;-81
2023/10/31 13:00:24;;;;;;;0.63;0.52;;;;;;;;;;5001063;28;20066;-81
2023/10/31 13:02:49;;;;;;;0.60;0.50;;;;;;;;;;5001161;28;20022;-81
2023/10/31 13:05:18;;;;;;;0.30;0.30;;;;;;;;;;4983592;28;20026;-79
2023/10/31 13:07:51;;;;;;;0.35;0.35;;;;;;;;;;5000676;28;20030;-80
2023/10/31 13:10:17;;;;;;;0.75;0.40;;;;;;;;;;5000353;28;20018;-79
2023/10/31 13:12:49;;;;;;;0.50;0.40;;;;;;;;;;5000644;28;20544;-80
2023/10/31 13:15:15;;;;;;;0.80;0.50;;;;;;;;;;5001665;28;20090;-80
2023/10/31 13:17:42;;;;;;;0.60;0.50;;;;;;;;;;5000125;28;20030;-80
2023/10/31 13:20:12;;;;;;;0.70;0.40;;;;;;;;;;5000439;28;20367;-80
2023/10/31 13:22:38;;;;;;;1.15;0.57;;;;;;;;;;4982982;28;20030;-79
2023/10/31 13:25:05;;;;;;;0.98;0.60;;;;;;;;;;5000499;28;20116;-78
2023/10/31 13:27:31;;;;;;;0.50;0.40;;;;;;;;;;4999899;28;20040;-80
2023/10/31 13:29:57;;;;;;;0.77;0.38;;;;;;;;;;5000276;28;20481;-81
2023/10/31 13:32:22;;;;;;;0.40;0.40;;;;;;;;;;5000041;28;20037;-80
2023/10/31 13:34:48;;;;;;;0.60;0.40;;;;;;;;;;5000130;28;20030;-80
2023/10/31 13:37:13;;;;;;;0.68;0.45;;;;;;;;;;5000460;28;20030;-81
2023/10/31 13:39:38;;;;;;;0.75;0.52;;;;;;;;;;5000022;28;20064;-79
2023/10/31 13:42:04;;;;;;;2.05;0.90;;;;;;;;;;5000136;28;20030;-81
2023/10/31 13:44:29;;;;;;;1.25;0.68;;;;;;;;;;4981936;28;20026;-79
2023/10/31 13:46:54;;;;;;;0.83;0.50;;;;;;;;;;4981819;28;20019;-80
2023/10/31 13:49:19;;;;;;;1.35;0.45;;;;;;;;;;4982195;28;20264;-80
2023/10/31 13:51:46;;;;;;;0.73;0.60;;;;;;;;;;4982261;28;20057;-80
2023/10/31 13:54:12;;;;;;;1.00;0.90;;;;;;;;;;4999792;28;20038;-79
2023/10/31 13:56:37;;;;;;;0.65;0.50;;;;;;;;;;4999809;28;20027;-80
2023/10/31 13:59:02;;;;;;;1.75;0.80;;;;;;;;;;4999532;28;20061;-79
2023/10/31 14:01:28;;;;;;;3.08;1.15;;;;;;;;;;5000127;28;20390;-82
2023/10/31 14:03:57;;;;;;;0.32;0.30;;;;;;;;;;5000237;28;20030;-79
2023/10/31 14:06:22;;;;;;;1.23;0.60;;;;;;;;;;4981547;28;20060;-81
2023/10/31 14:08:47;;;;;;;2.53;0.50;;;;;;;;;;5000019;28;20110;-80
2023/10/31 14:11:13;;;;;;;0.20;0.20;;;;;;;;;;4999383;28;20030;-80
2023/10/31 14:13:38;;;;;;;4.15;2.00;;;;;;;;;;4999001;28;20029;-80
2023/10/31 14:16:04;;;;;;;1.08;0.57;;;;;;;;;;4998978;28;20378;-80
2023/10/31 14:18:29;;;;;;;0.60;0.60;;;;;;;;;;4981941;28;20030;-81
2023/10/31 14:20:54;;;;;;;0.60;0.60;;;;;;;;;;4998956;28;20026;-79
2023/10/31 14:23:20;;;;;;;0.55;0.40;;;;;;;;;;4981231;28;20034;-81
2023/10/31 14:25:45;;;;;;;0.88;0.60;;;;;;;;;;4998321;28;20045;-78
2023/10/31 14:28:10;;;;;;;0.65;0.40;;;;;;;;;;4998542;28;20030;-80
2023/10/31 14:30:35;;;;;;;0.98;0.60;;;;;;;;;;4997703;28;20019;-79
2023/10/31 14:33:01;;;;;;;1.33;0.50;;;;;;;;;;4997817;28;20029;-80
2023/10/31 14:35:26;;;;;;;0.90;0.60;;;;;;;;;;4980494;28;20284;-80